Time;durP1;ratioP1;P1;durP2;ratioP2;P2;SDS_P1;SDS_P2;PMS_P1;PMS_P2;Temp;Humidity;BMP_temperature;BMP_pressure;BME280_temperature;BME280_humidity;BME280_pressure;Samples;Min_cycle;Max_cycle;Signal;HPM_P1;HPM_P2
2021/06/17 00:00:17;;;;;;;4.60;2.20;;;;;;;17.85;90.93;99291.63;1755708;81;20953;-70
2021/06/17 00:02:44;;;;;;;4.00;1.60;;;;;;;17.84;90.82;99301.79;1755171;81;21822;-70
2021/06/17 00:05:13;;;;;;;3.02;1.77;;;;;;;17.83;90.32;99300.95;1755454;81;21040;-70
2021/06/17 00:07:39;;;;;;;2.65;2.15;;;;;;;17.80;90.03;99297.23;1755384;81;20996;-70
2021/06/17 00:10:10;;;;;;;1.92;1.82;;;;;;;17.78;90.25;99298.31;1755570;81;21468;-69
2021/06/17 00:12:37;;;;;;;2.85;1.80;;;;;;;17.77;90.53;99302.73;1755550;81;21048;-70
2021/06/17 00:15:07;;;;;;;3.22;1.70;;;;;;;17.78;90.66;99296.53;1755398;81;21138;-69
2021/06/17 00:17:34;;;;;;;4.67;2.00;;;;;;;17.78;90.66;99302.27;1755497;81;21412;-70
2021/06/17 00:20:01;;;;;;;2.90;1.90;;;;;;;17.80;91.01;99301.64;1755416;80;20984;-70
2021/06/17 00:22:27;;;;;;;3.22;2.40;;;;;;;17.81;90.99;99302.84;1755357;81;21079;-69
2021/06/17 00:24:53;;;;;;;3.22;2.10;;;;;;;17.82;91.21;99300.58;1755674;80;21444;-70
2021/06/17 00:27:21;;;;;;;3.95;2.12;;;;;;;17.84;91.07;99302.63;1755751;81;21105;-71
2021/06/17 00:29:48;;;;;;;2.15;1.50;;;;;;;17.85;90.96;99302.99;1755406;80;20943;-71
2021/06/17 00:32:14;;;;;;;3.52;2.02;;;;;;;17.86;91.24;99305.16;1755645;81;20956;-70
2021/06/17 00:34:41;;;;;;;4.10;2.10;;;;;;;17.86;91.74;99305.98;1755706;81;21495;-71
2021/06/17 00:37:07;;;;;;;2.22;2.10;;;;;;;17.86;91.98;99309.94;1755682;81;21090;-70
2021/06/17 00:39:33;;;;;;;5.03;1.95;;;;;;;17.88;91.99;99304.56;1755385;81;21137;-72
2021/06/17 00:42:00;;;;;;;4.65;2.50;;;;;;;17.91;91.85;99309.60;1755306;81;20992;-71
2021/06/17 00:44:27;;;;;;;2.40;2.20;;;;;;;17.92;91.35;99311.28;1755665;80;21492;-71
2021/06/17 00:46:53;;;;;;;2.58;2.00;;;;;;;17.92;91.14;99309.13;1755719;81;20956;-71
2021/06/17 00:49:20;;;;;;;5.00;2.33;;;;;;;17.89;90.79;99310.19;1755598;81;21492;-71
2021/06/17 00:51:47;;;;;;;3.20;2.08;;;;;;;17.87;90.28;99314.72;1755416;81;21143;-71
2021/06/17 00:54:31;;;;;;;5.12;2.20;;;;;;;17.90;90.05;99321.08;1755280;80;20957;-70
2021/06/17 00:56:42;;;;;;;2.52;2.33;;;;;;;17.91;89.60;99317.50;1753324;81;20944;-69
2021/06/17 00:59:08;;;;;;;5.55;2.50;;;;;;;17.94;89.27;99325.17;1755464;81;20996;-70
2021/06/17 01:01:36;;;;;;;3.30;2.37;;;;;;;17.97;88.81;99308.32;1755687;81;21412;-70
2021/06/17 01:04:03;;;;;;;3.98;2.25;;;;;;;18.01;88.68;99304.48;1755475;80;21157;-71
2021/06/17 01:06:30;;;;;;;2.40;2.20;;;;;;;18.01;88.59;99296.11;1755255;80;21024;-69
2021/06/17 01:09:07;;;;;;;3.30;2.20;;;;;;;18.02;88.73;99287.73;1755373;80;20944;-71
2021/06/17 01:11:58;;;;;;;3.75;2.25;;;;;;;18.03;88.64;99299.94;1755388;81;20941;-71
2021/06/17 01:14:32;;;;;;;3.45;2.90;;;;;;;18.02;88.74;99326.73;1755451;81;20953;-71
2021/06/17 01:17:06;;;;;;;4.83;2.42;;;;;;;17.99;88.89;99340.59;1755617;81;21949;-71
2021/06/17 01:20:12;;;;;;;2.20;2.02;;;;;;;17.99;89.04;99335.33;1738273;81;20960;-70
2021/06/17 01:23:20;;;;;;;3.95;2.70;;;;;;;17.98;89.36;99320.05;1755414;81;21005;-69
2021/06/17 01:26:19;;;;;;;10.20;3.02;;;;;;;18.00;89.20;99329.11;1755190;80;21083;-70
2021/06/17 01:28:45;;;;;;;2.70;2.50;;;;;;;18.01;88.82;99340.00;1746123;81;21436;-70
2021/06/17 01:31:15;;;;;;;2.62;2.40;;;;;;;18.00;88.61;99329.95;1755427;81;21139;-70
2021/06/17 01:33:43;;;;;;;2.83;2.52;;;;;;;17.99;88.52;99324.33;1755316;80;21087;-70
2021/06/17 01:36:23;;;;;;;5.42;2.60;;;;;;;17.98;88.43;99334.52;1738440;81;21000;-70
2021/06/17 01:38:53;;;;;;;3.55;3.25;;;;;;;17.97;88.49;99318.84;1755481;81;21019;-70
2021/06/17 01:41:21;;;;;;;5.47;2.87;;;;;;;17.95;88.49;99320.27;1755077;81;21048;-71
2021/06/17 01:43:48;;;;;;;3.37;2.72;;;;;;;17.95;88.59;99321.59;1755322;80;21045;-69
2021/06/17 01:46:15;;;;;;;3.17;2.72;;;;;;;17.95;88.75;99323.37;1755271;81;20976;-71
2021/06/17 01:48:43;;;;;;;5.62;3.20;;;;;;;17.92;88.88;99321.81;1755541;81;20948;-70
2021/06/17 01:51:09;;;;;;;3.92;2.98;;;;;;;17.89;89.18;99320.23;1738321;81;21028;-72
2021/06/17 01:53:37;;;;;;;4.60;3.15;;;;;;;17.87;89.45;99330.51;1755532;81;21409;-70
2021/06/17 01:56:05;;;;;;;2.75;2.50;;;;;;;17.85;89.80;99331.09;1755474;81;21140;-71
2021/06/17 01:58:33;;;;;;;3.17;2.62;;;;;;;17.84;90.09;99332.05;1755262;81;20988;-70
2021/06/17 02:01:03;;;;;;;4.40;2.95;;;;;;;17.84;90.27;99336.83;1755355;81;21003;-70
2021/06/17 02:03:29;;;;;;;4.25;3.30;;;;;;;17.82;90.38;99326.89;1755437;81;21009;-69
2021/06/17 02:05:56;;;;;;;4.30;3.30;;;;;;;17.81;90.58;99330.95;1755364;81;20944;-71
2021/06/17 02:08:22;;;;;;;3.67;2.65;;;;;;;17.82;90.73;99338.73;1755617;80;21825;-70
2021/06/17 02:10:49;;;;;;;4.03;3.15;;;;;;;17.84;91.00;99336.83;1755236;81;21001;-69
2021/06/17 02:13:16;;;;;;;3.62;2.60;;;;;;;17.94;91.19;99336.17;1738566;81;21016;-71
2021/06/17 02:15:45;;;;;;;3.62;2.47;;;;;;;18.10;91.02;99337.55;1755329;81;21000;-70
2021/06/17 02:18:13;;;;;;;3.02;2.52;;;;;;;18.31;90.49;99339.53;1755520;81;21528;-71
2021/06/17 02:20:39;;;;;;;5.95;2.80;;;;;;;18.49;89.83;99337.66;1755747;81;21090;-71
2021/06/17 02:23:11;;;;;;;7.47;2.85;;;;;;;18.69;88.71;99340.59;1755462;81;20948;-72
2021/06/17 02:25:37;;;;;;;3.05;2.45;;;;;;;18.88;87.91;99339.05;1755641;80;21091;-72
2021/06/17 02:28:19;;;;;;;3.70;2.90;;;;;;;19.14;87.02;99338.34;1755571;81;20945;-71
2021/06/17 02:30:45;;;;;;;5.58;3.05;;;;;;;19.38;85.72;99336.05;1738951;81;21000;-71
2021/06/17 02:33:13;;;;;;;5.03;2.50;;;;;;;19.64;84.45;99333.97;1755729;81;21939;-72
2021/06/17 02:35:43;;;;;;;3.92;2.72;;;;;;;19.93;83.12;99328.48;1755421;81;21035;-72
2021/06/17 02:38:10;;;;;;;5.03;2.85;;;;;;;20.23;81.39;99333.02;1738668;81;21059;-71
2021/06/17 02:40:41;;;;;;;2.98;2.65;;;;;;;20.55;80.12;99336.48;1755596;81;21004;-71
2021/06/17 02:43:13;;;;;;;3.65;2.60;;;;;;;20.95;78.47;99335.72;1755715;81;21079;-71
2021/06/17 02:45:40;;;;;;;3.47;3.15;;;;;;;21.30;75.97;99337.48;1755721;81;21150;-71
2021/06/17 02:48:08;;;;;;;4.87;2.67;;;;;;;21.58;74.69;99347.77;1755567;81;21504;-71
2021/06/17 02:50:35;;;;;;;4.15;2.92;;;;;;;21.90;73.22;99346.71;1755537;81;20992;-71
2021/06/17 02:53:01;;;;;;;3.22;2.92;;;;;;;22.16;71.76;99340.41;1755856;81;20993;-71
2021/06/17 02:55:27;;;;;;;3.62;3.12;;;;;;;22.47;70.89;99345.05;1755568;81;21039;-71
2021/06/17 02:58:15;;;;;;;5.53;3.10;;;;;;;22.74;68.35;99353.09;1755543;80;21122;-70
2021/06/17 03:00:55;;;;;;;4.55;3.20;;;;;;;22.99;68.12;99364.89;1755428;81;21057;-70
2021/06/17 03:03:41;;;;;;;3.52;3.22;;;;;;;23.34;66.95;99370.35;1755483;80;20948;-70
2021/06/17 03:06:21;;;;;;;5.50;3.70;;;;;;;23.64;64.71;99371.05;1755473;81;21083;-71
2021/06/17 03:08:57;;;;;;;4.28;3.87;;;;;;;23.85;62.65;99372.94;1755539;81;21059;-71
2021/06/17 03:11:27;;;;;;;5.42;3.33;;;;;;;23.99;62.16;99383.03;1755449;81;21149;-71
2021/06/17 03:13:57;;;;;;;5.85;3.98;;;;;;;24.22;61.55;99379.93;1754938;81;20956;-72
2021/06/17 03:16:29;;;;;;;4.78;3.80;;;;;;;24.53;59.95;99381.73;1755475;80;20953;-71
2021/06/17 03:18:58;;;;;;;5.80;3.70;;;;;;;24.68;59.42;99386.83;1754718;81;21441;-71
2021/06/17 03:21:24;;;;;;;5.37;3.92;;;;;;;24.86;58.56;99395.59;1738657;81;20961;-73
2021/06/17 03:23:51;;;;;;;8.08;4.03;;;;;;;24.78;58.12;99399.52;1755504;81;21125;-70
2021/06/17 03:26:18;;;;;;;6.33;3.75;;;;;;;24.45;58.32;99390.96;1755208;81;20940;-71
2021/06/17 03:28:45;;;;;;;5.50;3.75;;;;;;;23.93;59.31;99390.79;1755574;81;20940;-71
2021/06/17 03:31:13;;;;;;;4.53;4.12;;;;;;;23.39;60.51;99385.81;1755642;81;21527;-71
2021/06/17 03:33:40;;;;;;;4.97;4.17;;;;;;;22.88;61.97;99396.41;1755562;81;21052;-70
2021/06/17 03:36:09;;;;;;;5.55;4.58;;;;;;;22.64;62.94;99398.66;1755753;81;21841;-72
2021/06/17 03:38:38;;;;;;;5.65;4.20;;;;;;;22.56;63.41;99403.84;1755471;81;21019;-70
2021/06/17 03:41:05;;;;;;;7.55;3.47;;;;;;;22.57;63.55;99405.03;1738438;81;21416;-70
2021/06/17 03:43:34;;;;;;;3.92;3.60;;;;;;;22.86;63.41;99398.86;1755422;81;20968;-70
2021/06/17 03:46:00;;;;;;;4.62;3.58;;;;;;;23.42;62.35;99401.45;1755863;81;21004;-71
2021/06/17 03:48:26;;;;;;;5.33;4.05;;;;;;;24.01;60.78;99399.66;1755510;81;21182;-72
2021/06/17 03:50:53;;;;;;;4.33;3.47;;;;;;;24.52;59.09;99398.18;1755646;81;21417;-71
2021/06/17 03:53:20;;;;;;;7.05;4.20;;;;;;;24.89;56.91;99392.63;1755562;81;21509;-70
2021/06/17 03:55:47;;;;;;;4.42;3.60;;;;;;;25.15;56.70;99384.66;1755496;81;21054;-70
2021/06/17 03:58:14;;;;;;;5.05;4.53;;;;;;;25.39;55.01;99390.08;1755514;81;20992;-70
2021/06/17 04:00:40;;;;;;;5.60;4.28;;;;;;;25.62;54.47;99385.05;1755421;81;21125;-72
2021/06/17 04:03:09;;;;;;;6.92;4.30;;;;;;;25.79;53.64;99388.59;1714071;81;21445;-71
2021/06/17 04:05:36;;;;;;;7.17;4.62;;;;;;;25.92;53.03;99390.30;1755420;80;21004;-70
2021/06/17 04:08:05;;;;;;;4.75;4.15;;;;;;;25.98;52.46;99383.50;1755580;81;20941;-70
2021/06/17 04:10:32;;;;;;;5.42;4.25;;;;;;;26.02;52.58;99387.48;1755463;80;21040;-72
2021/06/17 04:12:58;;;;;;;4.47;3.50;;;;;;;26.15;52.28;99395.02;1755479;80;21071;-71
2021/06/17 04:15:26;;;;;;;6.28;4.22;;;;;;;26.28;51.60;99392.18;1755652;81;21404;-71
2021/06/17 04:18:00;;;;;;;8.13;4.40;;;;;;;26.24;51.39;99394.00;1755406;81;20968;-70
2021/06/17 04:20:31;;;;;;;4.70;3.95;;;;;;;26.19;51.56;99392.33;1755438;81;20924;-71
2021/06/17 04:22:58;;;;;;;4.95;4.37;;;;;;;26.20;51.42;99396.66;1754985;80;21028;-72
2021/06/17 04:25:25;;;;;;;5.55;4.30;;;;;;;26.31;52.11;99393.72;1755341;80;21100;-71
2021/06/17 04:27:55;;;;;;;5.87;4.53;;;;;;;26.41;51.48;99406.37;1753545;81;20989;-72
2021/06/17 04:30:22;;;;;;;7.28;4.08;;;;;;;26.55;51.93;99413.73;1752423;80;21031;-73
2021/06/17 04:32:50;;;;;;;6.85;4.28;;;;;;;26.98;51.20;99410.36;1709444;80;21519;-72
2021/06/17 04:35:18;;;;;;;9.10;4.30;;;;;;;27.45;49.53;99413.08;1752460;82;20956;-71
2021/06/17 04:37:45;;;;;;;5.60;4.22;;;;;;;27.58;48.48;99410.70;1752526;82;21236;-70
2021/06/17 04:40:13;;;;;;;3.90;3.42;;;;;;;27.59;48.27;99414.21;1752438;82;20992;-69
2021/06/17 04:42:39;;;;;;;6.60;4.17;;;;;;;27.66;48.29;99412.52;1733511;81;21022;-70
2021/06/17 04:45:08;;;;;;;8.88;4.22;;;;;;;27.69;47.13;99413.02;1752384;82;20965;-71
2021/06/17 04:47:37;;;;;;;6.50;4.37;;;;;;;27.58;47.90;99425.94;1752503;82;20952;-71
2021/06/17 04:50:08;;;;;;;6.90;4.00;;;;;;;27.48;48.13;99427.93;1752529;82;21220;-70
2021/06/17 04:52:39;;;;;;;5.87;4.42;;;;;;;27.44;48.20;99422.09;1752474;82;20933;-70
2021/06/17 04:55:07;;;;;;;5.55;4.30;;;;;;;27.31;47.84;99425.32;1752277;82;20956;-71
2021/06/17 04:57:34;;;;;;;6.67;4.30;;;;;;;27.10;48.92;99434.38;1752443;82;20949;-71
2021/06/17 05:00:00;;;;;;;4.65;4.05;;;;;;;27.08;49.32;99426.55;1752490;82;20961;-71
2021/06/17 05:02:27;;;;;;;7.00;4.17;;;;;;;27.33;48.44;99425.16;1752395;80;21091;-70
2021/06/17 05:04:53;;;;;;;6.28;4.00;;;;;;;27.49;48.35;99425.09;1752532;80;21397;-71
2021/06/17 05:12:31;;;;;;;4.50;4.12;;;;;;;27.62;48.11;99433.41;1752457;82;21192;-69
2021/06/17 05:14:59;;;;;;;5.90;4.15;;;;;;;27.67;47.70;99435.56;1752333;82;21135;-70
2021/06/17 05:17:25;;;;;;;4.87;4.10;;;;;;;27.69;47.57;99441.06;1752305;80;20976;-67
2021/06/17 05:19:52;;;;;;;5.17;4.25;;;;;;;27.67;46.96;99438.23;1776636;80;21052;-69
2021/06/17 05:22:20;;;;;;;5.45;4.15;;;;;;;27.63;47.63;99451.10;1777990;80;20978;-70
2021/06/17 05:24:46;;;;;;;6.10;4.45;;;;;;;27.66;47.72;99443.25;1780892;80;21397;-70
2021/06/17 05:27:13;;;;;;;5.10;4.17;;;;;;;27.71;47.60;99450.25;1780621;80;21103;-70
2021/06/17 05:29:39;;;;;;;7.35;4.10;;;;;;;27.59;47.85;99444.44;1780565;80;20990;-70
2021/06/17 05:32:07;;;;;;;6.85;4.55;;;;;;;27.42;48.68;99447.64;1780876;80;21426;-70
2021/06/17 05:34:33;;;;;;;5.03;4.53;;;;;;;27.35;49.35;99448.52;1780611;80;21002;-70
2021/06/17 05:37:00;;;;;;;9.18;4.60;;;;;;;27.28;49.52;99446.19;1780671;80;21033;-69
2021/06/17 05:39:27;;;;;;;4.78;4.17;;;;;;;27.21;49.54;99448.70;1780640;80;21196;-70
2021/06/17 05:41:55;;;;;;;5.30;3.98;;;;;;;26.91;50.03;99452.90;1780535;80;20963;-70
2021/06/17 05:44:22;;;;;;;9.08;4.35;;;;;;;26.63;50.78;99448.89;1780830;80;20930;-70
2021/06/17 05:46:49;;;;;;;5.65;4.37;;;;;;;26.57;51.19;99444.25;1780636;80;20954;-70
2021/06/17 05:49:15;;;;;;;4.35;3.98;;;;;;;26.48;51.11;99448.73;1780685;80;21394;-70
2021/06/17 05:51:42;;;;;;;8.58;4.17;;;;;;;26.50;51.94;99445.40;1780659;80;21109;-70
2021/06/17 05:54:08;;;;;;;5.95;4.60;;;;;;;26.65;51.86;99442.89;1780715;80;21052;-70
2021/06/17 05:56:35;;;;;;;4.33;3.92;;;;;;;26.86;51.60;99441.89;1780915;80;20933;-70
2021/06/17 05:59:01;;;;;;;6.83;3.83;;;;;;;27.09;50.90;99451.40;1780741;80;21034;-70
2021/06/17 06:01:28;;;;;;;4.95;4.00;;;;;;;27.17;49.78;99456.73;1781104;80;21037;-70
2021/06/17 06:03:54;;;;;;;9.08;4.67;;;;;;;27.14;50.17;99459.75;1780799;80;21073;-69
2021/06/17 06:06:20;;;;;;;5.05;4.40;;;;;;;27.02;50.54;99464.58;1780922;79;20975;-70
2021/06/17 06:08:47;;;;;;;4.40;3.65;;;;;;;26.78;50.72;99461.39;1780779;80;21395;-69
2021/06/17 06:11:13;;;;;;;6.70;3.95;;;;;;;26.50;51.25;99466.73;1780990;80;20946;-70
2021/06/17 06:13:40;;;;;;;5.58;4.20;;;;;;;26.28;51.84;99456.17;1780824;79;21043;-71
2021/06/17 06:16:09;;;;;;;4.10;3.40;;;;;;;26.11;52.97;99467.80;1780712;80;21038;-71
2021/06/17 06:18:35;;;;;;;4.55;4.05;;;;;;;25.98;52.95;99460.25;1780774;79;21482;-70
2021/06/17 06:21:02;;;;;;;4.42;3.75;;;;;;;25.94;52.64;99468.76;1780974;80;20961;-71
2021/06/17 06:23:29;;;;;;;5.03;3.80;;;;;;;25.90;52.34;99463.41;1780729;80;21084;-69
2021/06/17 06:25:57;;;;;;;4.45;3.95;;;;;;;25.76;53.15;99454.70;1780901;80;21402;-70
2021/06/17 06:28:24;;;;;;;4.53;4.12;;;;;;;25.67;53.81;99460.48;1780529;80;21122;-70
2021/06/17 06:30:51;;;;;;;4.20;3.80;;;;;;;25.59;53.08;99465.73;1780644;80;20962;-70
2021/06/17 06:33:18;;;;;;;4.42;3.77;;;;;;;25.46;54.12;99463.52;1780650;79;21065;-71
2021/06/17 06:35:46;;;;;;;4.00;3.67;;;;;;;25.46;54.43;99457.35;1780769;79;20962;-70
2021/06/17 06:38:12;;;;;;;6.40;4.20;;;;;;;25.54;54.20;99460.91;1780799;80;21029;-70
2021/06/17 06:40:39;;;;;;;5.55;4.50;;;;;;;25.55;54.07;99456.41;1781034;80;21101;-70
2021/06/17 06:43:08;;;;;;;3.98;3.62;;;;;;;25.48;54.64;99467.35;1750279;80;20933;-70
2021/06/17 06:45:35;;;;;;;5.62;3.85;;;;;;;25.34;54.36;99473.61;1759412;81;21054;-70
2021/06/17 06:48:03;;;;;;;4.20;3.80;;;;;;;25.20;55.24;99470.17;1759567;81;21495;-70
2021/06/17 06:50:31;;;;;;;6.37;3.83;;;;;;;25.06;56.18;99472.09;1759951;81;21002;-71
2021/06/17 06:52:58;;;;;;;6.22;4.30;;;;;;;24.95;56.10;99475.02;1759495;81;21111;-68
2021/06/17 06:55:24;;;;;;;4.10;3.77;;;;;;;24.84;56.62;99472.55;1759746;81;20986;-70
2021/06/17 06:57:51;;;;;;;6.55;3.50;;;;;;;24.78;56.49;99471.86;1759520;81;20994;-70
2021/06/17 07:00:18;;;;;;;4.42;3.70;;;;;;;24.73;56.90;99477.63;1759638;81;21015;-71
2021/06/17 07:02:46;;;;;;;8.28;4.45;;;;;;;24.69;56.98;99474.94;1759473;80;21092;-71
2021/06/17 07:05:12;;;;;;;4.35;3.62;;;;;;;24.65;56.94;99485.53;1759459;81;22328;-71
2021/06/17 07:07:40;;;;;;;4.00;3.40;;;;;;;24.67;57.36;99482.23;1759464;81;21050;-72
2021/06/17 07:10:10;;;;;;;7.65;3.15;;;;;;;24.69;56.99;99479.76;1769989;80;21013;-71
2021/06/17 07:12:36;;;;;;;4.10;3.62;;;;;;;24.65;56.08;99484.20;1781155;80;20927;-71
2021/06/17 07:15:04;;;;;;;4.10;3.20;;;;;;;24.57;56.46;99482.81;1780627;80;20973;-70
2021/06/17 07:17:31;;;;;;;5.72;3.42;;;;;;;24.52;56.94;99490.41;1781032;80;21102;-71
2021/06/17 07:19:57;;;;;;;5.37;3.90;;;;;;;24.49;56.83;99487.55;1780869;80;20970;-70
2021/06/17 07:22:25;;;;;;;3.90;3.45;;;;;;;24.49;57.13;99485.38;1781076;80;21411;-71
2021/06/17 07:24:55;;;;;;;3.50;3.20;;;;;;;24.50;56.79;99485.23;1780641;80;20970;-71
2021/06/17 07:27:23;;;;;;;4.22;3.70;;;;;;;24.50;56.45;99485.23;1780051;80;21137;-70
2021/06/17 07:29:53;;;;;;;5.20;3.52;;;;;;;24.53;56.57;99486.27;1779387;80;21136;-70
2021/06/17 07:32:20;;;;;;;6.75;3.35;;;;;;;24.59;56.72;99488.78;1780035;80;20990;-71
2021/06/17 07:34:47;;;;;;;4.92;3.15;;;;;;;24.67;56.69;99487.55;1780731;80;20943;-71
2021/06/17 07:37:15;;;;;;;5.75;3.35;;;;;;;24.78;56.76;99487.30;1780801;80;20951;-70
2021/06/17 07:39:41;;;;;;;3.60;3.30;;;;;;;24.84;55.51;99493.34;1780769;80;21002;-70
2021/06/17 07:42:10;;;;;;;4.37;3.42;;;;;;;24.89;56.14;99485.73;1780652;79;21089;-69
2021/06/17 07:44:38;;;;;;;4.40;3.80;;;;;;;24.99;56.09;99487.83;1780968;80;20938;-71
2021/06/17 07:47:04;;;;;;;4.83;3.40;;;;;;;25.05;55.02;99497.03;1776049;80;21057;-70
2021/06/17 07:49:32;;;;;;;5.65;3.58;;;;;;;25.06;55.70;99482.73;1779075;79;21018;-70
2021/06/17 07:51:59;;;;;;;3.92;2.98;;;;;;;25.10;55.94;99484.09;1779976;80;21513;-70
2021/06/17 07:54:26;;;;;;;3.22;2.98;;;;;;;25.13;56.24;99479.80;1779818;80;21328;-69
2021/06/17 07:56:52;;;;;;;4.35;3.15;;;;;;;25.18;55.60;99484.66;1779890;80;21021;-70
2021/06/17 07:59:21;;;;;;;3.50;3.20;;;;;;;25.26;55.75;99496.67;1780002;79;21064;-71
2021/06/17 08:01:48;;;;;;;5.42;3.00;;;;;;;25.33;54.73;99493.73;1780341;79;20923;-70
2021/06/17 08:04:14;;;;;;;4.87;3.10;;;;;;;25.37;55.08;99491.10;1780567;80;20919;-70
2021/06/17 08:06:43;;;;;;;3.85;3.50;;;;;;;25.44;55.46;99493.45;1750146;80;21308;-70
2021/06/17 08:09:09;;;;;;;4.15;3.27;;;;;;;25.51;54.14;99506.48;1780549;79;21480;-72
2021/06/17 08:11:37;;;;;;;6.30;3.50;;;;;;;25.49;53.99;99494.32;1780573;80;20953;-70
2021/06/17 08:14:04;;;;;;;3.20;2.87;;;;;;;25.45;54.60;99501.78;1780902;80;20938;-72
2021/06/17 08:16:31;;;;;;;5.45;3.00;;;;;;;25.49;55.56;99504.48;1750605;80;21492;-71
2021/06/17 08:18:58;;;;;;;3.85;3.20;;;;;;;25.52;55.36;99509.49;1780581;80;21191;-70
2021/06/17 08:21:24;;;;;;;3.80;2.70;;;;;;;25.57;55.40;99498.37;1780526;80;20966;-70
2021/06/17 08:23:54;;;;;;;4.35;3.10;;;;;;;25.57;54.14;99511.19;1780790;80;21505;-71
2021/06/17 08:26:19;;;;;;;3.30;3.00;;;;;;;25.53;54.15;99520.48;1780774;80;20985;-71
2021/06/17 08:28:47;;;;;;;3.77;3.25;;;;;;;25.49;53.83;99503.64;1783415;80;20941;-71
2021/06/17 08:31:13;;;;;;;3.80;3.08;;;;;;;25.50;54.66;99506.15;1786457;80;21125;-71
2021/06/17 08:33:40;;;;;;;3.65;3.25;;;;;;;25.48;53.46;99509.47;1786423;80;21045;-70
2021/06/17 08:36:08;;;;;;;5.92;3.10;;;;;;;25.51;54.12;99501.66;1786385;80;20973;-71
2021/06/17 08:38:36;;;;;;;3.60;3.20;;;;;;;25.59;54.92;99504.34;1786602;79;21005;-71
2021/06/17 08:41:04;;;;;;;3.22;3.02;;;;;;;25.64;54.57;99509.58;1786465;80;20934;-71
2021/06/17 08:43:30;;;;;;;3.40;3.15;;;;;;;25.66;54.15;99509.42;1786712;80;21541;-70
2021/06/17 08:45:57;;;;;;;6.97;3.72;;;;;;;25.72;54.58;99503.47;1786345;80;20966;-71
2021/06/17 08:48:23;;;;;;;3.15;2.95;;;;;;;25.80;54.82;99509.31;1786568;80;20977;-71
2021/06/17 08:50:53;;;;;;;5.70;3.30;;;;;;;25.87;55.06;99499.70;1786280;80;20965;-71
2021/06/17 08:53:20;;;;;;;3.40;3.10;;;;;;;25.94;54.86;99506.06;1759358;80;21378;-70
2021/06/17 08:55:47;;;;;;;3.47;3.17;;;;;;;26.03;54.78;99510.41;1786428;80;21952;-70
2021/06/17 08:58:13;;;;;;;7.28;2.85;;;;;;;26.16;53.97;99507.31;1786866;80;21023;-71
2021/06/17 09:00:45;;;;;;;3.80;2.87;;;;;;;26.27;53.70;99513.16;1786550;80;21461;-70
2021/06/17 09:03:17;;;;;;;5.58;3.12;;;;;;;26.33;52.72;99500.55;1786523;80;21437;-71
2021/06/17 09:05:56;;;;;;;8.10;3.12;;;;;;;26.35;52.07;99504.39;1786632;80;21399;-70
2021/06/17 09:08:30;;;;;;;5.78;2.95;;;;;;;26.34;51.79;99504.89;1786413;80;21458;-71
2021/06/17 09:10:54;;;;;;;4.00;2.83;;;;;;;26.29;51.38;99507.67;1786001;80;20950;-71
2021/06/17 09:13:24;;;;;;;4.97;3.25;;;;;;;26.31;52.11;99503.04;1786492;80;21013;-70
2021/06/17 09:15:55;;;;;;;5.20;3.00;;;;;;;26.42;51.76;99504.89;1758484;80;20990;-71
2021/06/17 09:18:28;;;;;;;3.42;3.12;;;;;;;26.58;52.62;99509.94;1786442;79;21033;-71
2021/06/17 09:21:09;;;;;;;3.22;2.80;;;;;;;26.66;50.81;99507.26;1786757;80;21114;-71
2021/06/17 09:23:40;;;;;;;4.55;2.90;;;;;;;26.68;50.93;99505.27;1786211;80;20977;-70
2021/06/17 09:26:17;;;;;;;4.47;2.98;;;;;;;26.75;50.00;99508.95;1786674;80;20980;-71
2021/06/17 09:29:03;;;;;;;3.00;2.80;;;;;;;26.83;50.76;99496.92;1784073;80;21144;-71
2021/06/17 09:31:34;;;;;;;3.42;2.72;;;;;;;26.92;50.64;99502.61;1780817;80;21033;-70
2021/06/17 09:34:02;;;;;;;4.80;3.03;;;;;;;26.90;49.53;99500.61;1780960;79;21133;-71
2021/06/17 09:36:32;;;;;;;2.90;2.70;;;;;;;26.82;49.00;99514.44;1780506;80;21033;-71
2021/06/17 09:39:03;;;;;;;3.20;2.62;;;;;;;26.83;48.82;99509.43;1780316;80;21380;-70
2021/06/17 09:41:39;;;;;;;2.58;2.37;;;;;;;26.92;48.52;99513.78;1781124;80;21005;-71
2021/06/17 09:44:28;;;;;;;5.45;2.40;;;;;;;27.00;48.88;99500.45;1780733;80;20946;-71
2021/06/17 09:47:17;;;;;;;3.08;2.70;;;;;;;27.09;48.72;99500.30;1780988;80;21110;-72
2021/06/17 09:49:44;;;;;;;3.47;3.10;;;;;;;27.22;49.28;99499.77;1780616;80;20937;-71
2021/06/17 09:52:12;;;;;;;3.20;2.90;;;;;;;27.22;49.42;99504.27;1780936;79;20970;-70
2021/06/17 09:54:40;;;;;;;6.00;2.85;;;;;;;27.14;49.23;99495.79;1780642;80;21065;-71
2021/06/17 09:57:15;;;;;;;5.35;2.77;;;;;;;26.99;48.42;99491.61;1781003;80;20934;-70
2021/06/17 09:59:55;;;;;;;4.05;2.70;;;;;;;26.87;49.13;99502.27;1780581;80;21725;-70
2021/06/17 10:02:32;;;;;;;4.28;2.95;;;;;;;26.88;49.71;99495.09;1780847;80;21034;-71
2021/06/17 10:05:26;;;;;;;3.15;2.62;;;;;;;27.01;50.50;99482.09;1780811;80;20942;-70
2021/06/17 10:07:52;;;;;;;3.20;2.60;;;;;;;27.23;49.56;99495.25;1780541;80;20974;-69
2021/06/17 10:10:24;;;;;;;6.00;2.95;;;;;;;27.21;47.31;99487.41;1780989;80;20990;-70
2021/06/17 10:12:50;;;;;;;2.80;2.60;;;;;;;27.15;48.89;99482.77;1781071;80;21123;-70
2021/06/17 10:15:17;;;;;;;3.83;2.90;;;;;;;27.21;49.68;99477.23;1780708;80;21367;-72
2021/06/17 10:17:43;;;;;;;3.25;2.95;;;;;;;27.38;48.38;99479.70;1780972;80;21402;-71
2021/06/17 10:20:12;;;;;;;4.55;2.92;;;;;;;27.57;48.87;99485.69;1780922;80;20974;-71
2021/06/17 10:22:39;;;;;;;5.58;3.40;;;;;;;27.68;47.59;99485.33;1780576;80;21021;-70
2021/06/17 10:25:08;;;;;;;3.02;2.65;;;;;;;27.69;48.21;99486.50;1780755;80;21462;-71
2021/06/17 10:27:37;;;;;;;3.08;2.62;;;;;;;27.67;48.11;99485.00;1780549;80;20970;-71
2021/06/17 10:30:08;;;;;;;3.92;2.62;;;;;;;27.59;47.89;99483.17;1784802;80;20935;-72
2021/06/17 10:32:40;;;;;;;3.35;2.47;;;;;;;27.55;47.21;99492.53;1786474;80;20942;-71
2021/06/17 10:35:10;;;;;;;4.28;2.55;;;;;;;27.55;46.36;99486.36;1786357;80;20966;-71
2021/06/17 10:38:04;;;;;;;3.00;2.47;;;;;;;27.58;46.78;99484.72;1786399;80;21051;-71
2021/06/17 10:40:33;;;;;;;10.03;2.95;;;;;;;27.66;48.08;99473.98;1786723;80;21017;-71
2021/06/17 10:43:00;;;;;;;3.45;2.50;;;;;;;27.77;47.50;99473.11;1786883;80;21049;-70
2021/06/17 10:45:45;;;;;;;3.90;2.65;;;;;;;27.82;46.79;99479.25;1786490;80;20985;-69
2021/06/17 10:48:22;;;;;;;4.60;2.70;;;;;;;27.82;47.20;99479.75;1786600;80;21517;-71
2021/06/17 10:50:47;;;;;;;;;;;;;;;27.83;47.42;99482.76;1788607;79;21132;-71
2021/06/17 10:53:32;;;;;;;3.65;2.20;;;;;;;27.86;47.28;99471.22;1786428;80;20115;-73
2021/06/17 10:56:07;;;;;;;3.90;2.52;;;;;;;27.93;47.11;99462.02;1786882;80;20973;-71
2021/06/17 10:58:50;;;;;;;3.62;2.72;;;;;;;27.96;47.10;99471.86;1786817;80;20978;-72
2021/06/17 11:01:41;;;;;;;4.65;2.77;;;;;;;27.96;46.51;99458.99;1786923;79;21441;-71
2021/06/17 11:04:18;;;;;;;4.25;2.55;;;;;;;27.84;46.60;99461.70;1786502;80;21098;-70
2021/06/17 11:07:05;;;;;;;4.17;2.30;;;;;;;27.70;46.72;99469.96;1786799;80;20934;-71
2021/06/17 11:09:57;;;;;;;3.02;2.67;;;;;;;27.69;47.09;99457.61;1786633;80;20905;-70
2021/06/17 11:12:27;;;;;;;2.50;2.30;;;;;;;27.75;47.10;99444.89;1785343;80;21021;-71
2021/06/17 11:15:01;;;;;;;3.17;2.45;;;;;;;27.72;47.77;99451.41;1786725;80;21413;-69
2021/06/17 11:17:33;;;;;;;3.10;2.62;;;;;;;27.60;47.71;99460.80;1786603;80;21304;-72
2021/06/17 11:20:10;;;;;;;;;;;;;;;27.54;48.05;99448.62;1789109;80;20921;-70
2021/06/17 11:22:49;;;;;;;3.60;2.62;;;;;;;27.50;48.35;99453.47;1786548;80;20146;-71
2021/06/17 11:25:22;;;;;;;3.40;3.00;;;;;;;27.47;48.76;99444.96;1786524;80;21568;-70
2021/06/17 11:28:04;;;;;;;3.08;2.75;;;;;;;27.45;49.17;99439.79;1783909;80;21029;-71
2021/06/17 11:30:54;;;;;;;6.78;2.80;;;;;;;27.44;48.89;99446.97;1786498;80;21150;-72
2021/06/17 11:33:22;;;;;;;2.92;2.50;;;;;;;27.47;48.16;99447.63;1786441;80;21388;-70
2021/06/17 11:35:58;;;;;;;4.10;2.37;;;;;;;27.47;48.45;99451.14;1784822;80;21017;-70
2021/06/17 11:38:28;;;;;;;3.17;2.52;;;;;;;27.48;47.37;99451.97;1786712;80;21457;-71
2021/06/17 11:40:55;;;;;;;4.05;2.50;;;;;;;27.45;47.83;99450.47;1786827;80;20949;-70
2021/06/17 11:43:25;;;;;;;5.05;2.40;;;;;;;27.42;48.41;99440.96;1786452;80;21253;-71
2021/06/17 11:45:52;;;;;;;5.10;2.45;;;;;;;27.44;48.98;99443.46;1785468;80;20989;-70
2021/06/17 11:48:21;;;;;;;2.72;2.52;;;;;;;27.45;47.54;99450.47;1786498;80;21045;-71
2021/06/17 11:50:50;;;;;;;2.50;2.30;;;;;;;27.41;47.99;99445.97;1786974;80;20938;-71